createdAt,value
2017-09-07T00:00:33.875Z,0
2017-09-07T00:01:18.978Z,0
2017-09-07T00:02:33.915Z,0
2017-09-07T00:03:19.017Z,0
2017-09-07T00:04:19.345Z,0
2017-09-07T00:05:19.387Z,0
2017-09-07T00:06:19.395Z,0
2017-09-07T00:07:19.409Z,0
2017-09-07T00:08:34.060Z,0
2017-09-07T00:09:19.453Z,0
2017-09-07T00:10:19.484Z,0
2017-09-07T00:11:19.516Z,0
2017-09-07T00:12:19.221Z,0
2017-09-07T00:13:19.545Z,0
2017-09-07T00:14:19.573Z,0
2017-09-07T00:15:34.217Z,0
2017-09-07T00:16:19.618Z,0
2017-09-07T00:17:19.659Z,0
2017-09-07T00:18:19.658Z,0
2017-09-07T00:19:19.678Z,0
2017-09-07T00:20:19.092Z,0
2017-09-07T00:21:34.035Z,0
2017-09-07T00:22:19.444Z,0
2017-09-07T00:23:19.772Z,0
2017-09-07T00:24:19.801Z,0
2017-09-07T00:25:19.521Z,0
2017-09-07T00:26:19.527Z,0
2017-09-07T00:27:19.554Z,0
2017-09-07T00:28:19.888Z,0
2017-09-07T00:29:34.526Z,0
2017-09-07T00:30:34.545Z,0
2017-09-07T00:31:34.578Z,0
2017-09-07T00:32:19.665Z,0
2017-09-07T00:33:19.693Z,0
2017-09-07T00:34:20.020Z,0
2017-09-07T00:35:20.041Z,0
2017-09-07T00:37:34.696Z,0
2017-09-07T00:38:20.116Z,0
2017-09-07T00:39:20.126Z,0
2017-09-07T00:40:19.850Z,0
2017-09-07T00:41:20.181Z,0
2017-09-07T00:42:19.899Z,0
2017-09-07T00:43:19.608Z,0
2017-09-07T00:45:20.267Z,0
2017-09-07T00:46:20.341Z,0
2017-09-07T00:47:34.933Z,0
2017-09-07T00:48:34.957Z,0
2017-09-07T00:49:34.971Z,0
2017-09-07T00:50:34.995Z,0
2017-09-07T00:51:20.092Z,0
2017-09-07T00:52:20.415Z,0
2017-09-07T00:53:20.437Z,0
2017-09-07T00:54:20.162Z,0
2017-09-07T00:55:20.475Z,0
2017-09-07T00:56:20.512Z,0
2017-09-07T00:57:20.533Z,0
2017-09-07T00:58:20.559Z,0
2017-09-07T00:59:20.576Z,0
2017-09-07T01:00:20.601Z,0
2017-09-07T01:02:34.950Z,0
2017-09-07T01:03:20.358Z,0
2017-09-07T01:04:20.678Z,0
2017-09-07T01:05:20.402Z,0
2017-09-07T01:06:20.727Z,0
2017-09-07T01:07:20.740Z,0
2017-09-07T01:08:20.768Z,0
2017-09-07T01:09:20.787Z,0
2017-09-07T01:10:20.811Z,0
2017-09-07T01:11:20.838Z,0
2017-09-07T01:12:20.859Z,0
2017-09-07T01:13:20.879Z,0
2017-09-07T01:14:20.903Z,0
2017-09-07T01:15:20.616Z,0
2017-09-07T01:16:20.947Z,0
2017-09-07T01:17:20.713Z,0
2017-09-07T01:18:20.684Z,0
2017-09-07T01:20:21.042Z,0
2017-09-07T01:21:21.054Z,0
2017-09-07T01:22:21.075Z,0
2017-09-07T01:23:35.718Z,0
2017-09-07T01:24:35.739Z,0
2017-09-07T01:25:21.143Z,0
2017-09-07T01:26:20.857Z,0
2017-09-07T01:27:21.185Z,0
2017-09-07T01:28:21.219Z,0
2017-09-07T01:29:20.918Z,0
2017-09-07T01:30:21.282Z,0
2017-09-07T01:31:21.271Z,0
2017-09-07T01:32:20.991Z,0
2017-09-07T01:33:21.317Z,0
2017-09-07T01:34:35.964Z,0
2017-09-07T01:35:21.364Z,0
2017-09-07T01:36:36.005Z,0
2017-09-07T01:37:36.026Z,0
2017-09-07T01:38:35.749Z,0
2017-09-07T01:39:21.455Z,0
2017-09-07T01:40:21.473Z,0
2017-09-07T01:41:21.499Z,0
2017-09-07T01:42:21.515Z,0
2017-09-07T01:43:21.549Z,0
2017-09-07T01:44:21.561Z,0
2017-09-07T01:45:36.213Z,0
2017-09-07T01:46:21.605Z,0
2017-09-07T01:47:21.626Z,0
2017-09-07T01:48:21.650Z,0
2017-09-07T01:49:36.294Z,0
2017-09-07T01:50:36.005Z,0
2017-09-07T01:51:36.338Z,0
2017-09-07T01:52:21.739Z,0
2017-09-07T01:53:36.380Z,0
2017-09-07T01:54:36.401Z,0
2017-09-07T01:55:21.804Z,0
2017-09-07T01:56:21.823Z,0
2017-09-07T01:57:21.847Z,0
2017-09-07T01:58:21.870Z,0
2017-09-07T01:59:21.891Z,0
2017-09-07T02:00:21.606Z,0
2017-09-07T02:01:21.941Z,0
2017-09-07T02:02:21.648Z,0
2017-09-07T02:03:21.667Z,0
2017-09-07T02:04:36.316Z,0
2017-09-07T02:05:21.722Z,0
2017-09-07T02:06:36.665Z,0
2017-09-07T02:07:36.699Z,0
2017-09-07T02:08:22.090Z,0
2017-09-07T02:09:22.113Z,0
2017-09-07T02:10:22.130Z,0
2017-09-07T02:11:22.156Z,0
2017-09-07T02:12:22.176Z,0
2017-09-07T02:13:22.194Z,0
2017-09-07T02:14:22.221Z,0
2017-09-07T02:15:22.238Z,0
2017-09-07T02:16:22.265Z,0
2017-09-07T02:17:22.281Z,0
2017-09-07T02:18:22.307Z,0
2017-09-07T02:19:22.328Z,0
2017-09-07T02:20:22.353Z,0
2017-09-07T02:21:22.065Z,0
2017-09-07T02:22:37.014Z,0
2017-09-07T02:23:21.801Z,0
2017-09-07T02:25:22.152Z,0
2017-09-07T02:26:22.174Z,0
2017-09-07T02:27:22.503Z,0
2017-09-07T02:28:22.218Z,0
2017-09-07T02:29:36.860Z,0
2017-09-07T02:30:22.569Z,0
2017-09-07T02:31:22.323Z,0
2017-09-07T02:32:22.613Z,0
2017-09-07T02:33:22.636Z,0
2017-09-07T02:34:22.670Z,0
2017-09-07T02:35:22.375Z,0
2017-09-07T02:36:22.702Z,0
2017-09-07T02:37:37.347Z,0
2017-09-07T02:38:22.448Z,0
2017-09-07T02:39:22.462Z,0
2017-09-07T02:40:22.800Z,0
2017-09-07T02:41:22.822Z,0
2017-09-07T02:42:22.833Z,0
2017-09-07T02:43:22.859Z,0
2017-09-07T02:44:22.261Z,0
2017-09-07T02:45:22.905Z,0
2017-09-07T02:46:22.924Z,0
2017-09-07T02:47:22.641Z,0
2017-09-07T02:49:22.678Z,0
2017-09-07T02:51:22.729Z,0
2017-09-07T02:52:23.060Z,0
2017-09-07T02:53:23.076Z,0
2017-09-07T02:54:22.790Z,0
2017-09-07T02:55:22.844Z,0
2017-09-07T02:56:22.525Z,0
2017-09-07T02:58:37.499Z,0
2017-09-07T02:59:37.524Z,0
2017-09-07T03:00:22.921Z,0
2017-09-07T03:01:22.941Z,0
2017-09-07T03:02:37.586Z,0
2017-09-07T03:03:22.987Z,0
2017-09-07T03:04:23.013Z,0
2017-09-07T03:05:23.037Z,0
2017-09-07T03:06:23.054Z,0
2017-09-07T03:07:38.011Z,0
2017-09-07T03:08:23.408Z,0
2017-09-07T03:09:38.048Z,0
2017-09-07T03:10:38.073Z,0
2017-09-07T03:11:38.095Z,0
2017-09-07T03:12:22.878Z,0
2017-09-07T03:13:23.515Z,0
2017-09-07T03:14:23.540Z,0
2017-09-07T03:15:23.562Z,0
2017-09-07T03:16:23.274Z,0
2017-09-07T03:17:23.606Z,0
2017-09-07T03:19:23.647Z,0
2017-09-07T03:20:23.673Z,0
2017-09-07T03:21:23.384Z,0
2017-09-07T03:22:23.719Z,0
2017-09-07T03:23:23.424Z,0
2017-09-07T03:24:23.817Z,0
2017-09-07T03:25:38.401Z,0
2017-09-07T03:26:23.798Z,0
2017-09-07T03:27:23.826Z,0
2017-09-07T03:28:23.844Z,0
2017-09-07T03:29:23.558Z,0
2017-09-07T03:30:23.897Z,0
2017-09-07T03:31:23.600Z,0
2017-09-07T03:32:23.932Z,0
2017-09-07T03:34:23.970Z,0
2017-09-07T03:35:23.689Z,0
2017-09-07T03:36:24.023Z,0
2017-09-07T03:37:23.426Z,0
2017-09-07T03:38:23.753Z,0
2017-09-07T03:39:24.083Z,0
2017-09-07T03:40:24.108Z,0
2017-09-07T03:41:38.749Z,0
2017-09-07T03:42:38.769Z,0
2017-09-07T03:43:24.169Z,0
2017-09-07T03:44:24.193Z,0
2017-09-07T03:45:23.915Z,0
2017-09-07T03:46:24.240Z,0
2017-09-07T03:47:24.258Z,0
2017-09-07T03:48:24.283Z,0
2017-09-07T03:49:23.992Z,0
2017-09-07T03:50:24.323Z,0
2017-09-07T03:51:24.350Z,0
2017-09-07T03:52:24.364Z,0
2017-09-07T03:54:24.416Z,0
2017-09-07T03:55:24.436Z,4
2017-09-07T03:56:24.145Z,4
2017-09-07T03:57:39.099Z,4
2017-09-07T03:58:24.186Z,0
2017-09-07T03:59:39.142Z,4
2017-09-07T04:00:39.159Z,4
2017-09-07T04:01:24.563Z,4
2017-09-07T04:02:24.632Z,8
2017-09-07T04:03:24.602Z,4
2017-09-07T04:04:24.627Z,8
2017-09-07T04:05:24.650Z,8
2017-09-07T04:06:24.680Z,12
2017-09-07T04:07:24.695Z,12
2017-09-07T04:08:24.716Z,12
2017-09-07T04:09:24.430Z,12
2017-09-07T04:10:24.767Z,24
2017-09-07T04:11:24.785Z,28
2017-09-07T04:12:39.424Z,32
2017-09-07T04:13:24.823Z,36
2017-09-07T04:14:24.848Z,36
2017-09-07T04:15:24.561Z,44
2017-09-07T04:16:24.580Z,56
2017-09-07T04:17:39.532Z,80
2017-09-07T04:18:24.316Z,92
2017-09-07T04:19:24.646Z,104
2017-09-07T04:20:24.980Z,116
2017-09-07T04:21:24.381Z,124
2017-09-07T04:23:39.671Z,140
2017-09-07T04:24:25.062Z,152
2017-09-07T04:25:24.777Z,160
2017-09-07T04:26:24.813Z,168
2017-09-07T04:27:24.513Z,188
2017-09-07T04:29:24.874Z,224
2017-09-07T04:30:24.884Z,236
2017-09-07T04:31:24.909Z,208
2017-09-07T04:32:39.861Z,212
2017-09-07T04:33:24.954Z,212
2017-09-07T04:34:24.970Z,236
2017-09-07T04:35:24.998Z,272
2017-09-07T04:36:25.322Z,232
2017-09-07T04:37:25.347Z,200
2017-09-07T04:38:25.055Z,228
2017-09-07T04:39:25.080Z,264
2017-09-07T04:40:25.100Z,228
2017-09-07T04:41:25.122Z,252
2017-09-07T04:42:25.448Z,376
2017-09-07T04:43:25.172Z,412
2017-09-07T04:44:40.118Z,372
2017-09-07T04:45:25.214Z,472
2017-09-07T04:46:40.171Z,464
2017-09-07T04:47:25.257Z,388
2017-09-07T04:48:25.606Z,436
2017-09-07T04:49:25.611Z,540
2017-09-07T04:50:25.627Z,640
2017-09-07T04:51:25.646Z,508
2017-09-07T04:53:25.700Z,512
2017-09-07T04:54:25.406Z,764
2017-09-07T04:55:25.733Z,1004
2017-09-07T04:56:25.767Z,872
2017-09-07T04:58:25.803Z,752
2017-09-07T04:59:25.824Z,600
2017-09-07T05:00:40.157Z,592
2017-09-07T05:01:25.882Z,684
2017-09-07T05:02:25.886Z,736
2017-09-07T05:03:25.909Z,684
2017-09-07T05:04:25.933Z,716
2017-09-07T05:05:25.335Z,820
2017-09-07T05:06:26.226Z,996
2017-09-07T05:07:25.997Z,952
2017-09-07T05:08:26.022Z,912
2017-09-07T05:09:26.040Z,1184
2017-09-07T05:10:25.752Z,1156
2017-09-07T05:11:25.776Z,912
2017-09-07T05:12:25.798Z,928
2017-09-07T05:13:26.137Z,780
2017-09-07T05:14:25.870Z,868
2017-09-07T05:15:40.796Z,1528
2017-09-07T05:16:40.814Z,1376
2017-09-07T05:17:26.213Z,1404
2017-09-07T05:18:26.230Z,1556
2017-09-07T05:19:25.950Z,2424
2017-09-07T05:20:25.973Z,3216
2017-09-07T05:21:40.920Z,2576
2017-09-07T05:22:26.331Z,2368
2017-09-07T05:23:26.343Z,2668
2017-09-07T05:24:26.364Z,2844
2017-09-07T05:25:25.771Z,3400
2017-09-07T05:26:26.413Z,3080
2017-09-07T05:27:26.123Z,3036
2017-09-07T05:28:26.445Z,2776
2017-09-07T05:29:26.473Z,3772
2017-09-07T05:30:26.551Z,2872
2017-09-07T05:31:41.145Z,2912
2017-09-07T05:32:41.165Z,2508
2017-09-07T05:33:26.564Z,2268
2017-09-07T05:34:26.592Z,2488
2017-09-07T05:35:26.301Z,3568
2017-09-07T05:36:41.252Z,2668
2017-09-07T05:37:26.660Z,2376
2017-09-07T05:38:26.363Z,2292
2017-09-07T05:39:41.040Z,2176
2017-09-07T05:40:26.722Z,2176
2017-09-07T05:41:26.737Z,2508
2017-09-07T05:42:26.459Z,2212
2017-09-07T05:44:26.808Z,1572
2017-09-07T05:45:26.884Z,1516
2017-09-07T05:46:41.478Z,1492
2017-09-07T05:47:41.493Z,1936
2017-09-07T05:48:41.519Z,2444
2017-09-07T05:49:26.924Z,2840
2017-09-07T05:50:26.942Z,2440
2017-09-07T05:51:41.616Z,2088
2017-09-07T05:52:26.985Z,2292
2017-09-07T05:53:26.694Z,2284
2017-09-07T05:54:27.030Z,2260
2017-09-07T05:56:26.763Z,2380
2017-09-07T05:57:26.487Z,2672
2017-09-07T05:58:26.812Z,2048
2017-09-07T05:59:26.524Z,1836
2017-09-07T06:00:41.791Z,1656
2017-09-07T06:01:26.874Z,1664
2017-09-07T06:02:26.902Z,1500
2017-09-07T06:03:26.921Z,1260
2017-09-07T06:04:26.943Z,1264
2017-09-07T06:06:41.916Z,1628
2017-09-07T06:07:27.006Z,1560
2017-09-07T06:08:27.085Z,1696
2017-09-07T06:09:41.674Z,1524
2017-09-07T06:10:27.387Z,1284
2017-09-07T06:11:41.719Z,1236
2017-09-07T06:12:41.741Z,1120
2017-09-07T06:13:27.458Z,1156
2017-09-07T06:14:27.165Z,1192
2017-09-07T06:15:26.879Z,1428
2017-09-07T06:16:27.517Z,1876
2017-09-07T06:17:27.548Z,1920
2017-09-07T06:18:27.257Z,2280
2017-09-07T06:19:42.204Z,3916
2017-09-07T06:20:42.228Z,3860
2017-09-07T06:21:27.634Z,3428
2017-09-07T06:22:27.664Z,3076
2017-09-07T06:23:27.107Z,3332
2017-09-07T06:24:27.702Z,4592
2017-09-07T06:25:27.413Z,7976
2017-09-07T06:26:27.431Z,9276
2017-09-07T06:27:27.144Z,10332
2017-09-07T06:28:27.172Z,11628
2017-09-07T06:29:27.808Z,10168
2017-09-07T06:30:27.831Z,8600
2017-09-07T06:31:27.852Z,6944
2017-09-07T06:32:27.570Z,7340
2017-09-07T06:33:27.588Z,6768
2017-09-07T06:34:27.927Z,6728
2017-09-07T06:35:42.261Z,7740
2017-09-07T06:36:27.964Z,9760
2017-09-07T06:37:27.679Z,10496
2017-09-07T06:39:28.038Z,11328
2017-09-07T06:40:28.064Z,9116
2017-09-07T06:41:28.081Z,7164
2017-09-07T06:42:28.138Z,4636
2017-09-07T06:43:28.127Z,4312
2017-09-07T06:44:27.877Z,6280
2017-09-07T06:45:28.178Z,4140
2017-09-07T06:46:27.888Z,3840
2017-09-07T06:47:27.913Z,3644
2017-09-07T06:48:27.622Z,4312
2017-09-07T06:49:27.697Z,4140
2017-09-07T06:50:27.719Z,5052
2017-09-07T06:51:42.970Z,5560
2017-09-07T06:52:28.331Z,9044
2017-09-07T06:53:42.978Z,10372
2017-09-07T06:54:27.760Z,9284
2017-09-07T06:55:27.781Z,8744
2017-09-07T06:56:43.043Z,6044
2017-09-07T06:57:28.453Z,5428
2017-09-07T06:58:28.159Z,4744
2017-09-07T06:59:28.487Z,7236
2017-09-07T07:00:28.355Z,8452
2017-09-07T07:01:28.533Z,7836
2017-09-07T07:02:28.668Z,8228
2017-09-07T07:03:28.688Z,10320
2017-09-07T07:04:28.301Z,10036
2017-09-07T07:05:28.634Z,14212
2017-09-07T07:06:28.654Z,61664
2017-09-07T07:07:42.990Z,6400
2017-09-07T07:08:43.421Z,4824
2017-09-07T07:09:43.346Z,4376
2017-09-07T07:10:43.369Z,4280
2017-09-07T07:11:28.869Z,3336
2017-09-07T07:12:28.631Z,3984
2017-09-07T07:13:28.813Z,3880
2017-09-07T07:14:28.933Z,4652
2017-09-07T07:15:28.604Z,5252
2017-09-07T07:16:28.883Z,6120
2017-09-07T07:17:29.111Z,16180
2017-09-07T07:18:28.934Z,7760
2017-09-07T07:19:43.735Z,8600
2017-09-07T07:20:28.672Z,7132
2017-09-07T07:21:28.698Z,6572
2017-09-07T07:22:43.802Z,8052
2017-09-07T07:23:28.850Z,6660
2017-09-07T07:24:28.877Z,6060
2017-09-07T07:25:29.097Z,9300
2017-09-07T07:26:28.819Z,12700
2017-09-07T07:27:29.248Z,14032
2017-09-07T07:28:29.375Z,10860
2017-09-07T07:29:28.984Z,9504
2017-09-07T07:30:29.312Z,10376
2017-09-07T07:31:29.433Z,13332
2017-09-07T07:32:29.360Z,12944
2017-09-07T07:33:29.531Z,10556
2017-09-07T07:34:29.307Z,8632
2017-09-07T07:35:29.335Z,8832
2017-09-07T07:36:29.804Z,9320
2017-09-07T07:37:29.376Z,8316
2017-09-07T07:38:29.503Z,10860
2017-09-07T07:39:29.437Z,32608
2017-09-07T07:40:29.454Z,14884
2017-09-07T07:41:29.676Z,18016
2017-09-07T07:42:29.701Z,10184
2017-09-07T07:43:29.416Z,17376
2017-09-07T07:44:29.543Z,17952
2017-09-07T07:45:29.671Z,51008
2017-09-07T07:46:29.589Z,18720
2017-09-07T07:47:29.615Z,21664
2017-09-07T07:49:44.295Z,17824
2017-09-07T07:50:29.852Z,53696
2017-09-07T07:51:29.710Z,23712
2017-09-07T07:52:29.580Z,58304
2017-09-07T07:53:29.967Z,64864
2017-09-07T07:54:44.101Z,65344
2017-09-07T07:55:29.607Z,16524
2017-09-07T07:57:29.652Z,39040
2017-09-07T07:58:29.580Z,59680
2017-09-07T07:59:44.227Z,59648
2017-09-07T08:01:29.351Z,46560
2017-09-07T08:02:29.687Z,60000
2017-09-07T08:03:30.211Z,53120
2017-09-07T08:04:30.146Z,61184
2017-09-07T08:05:29.803Z,58272
2017-09-07T08:06:29.821Z,59808
2017-09-07T08:07:30.121Z,48352
2017-09-07T08:08:44.922Z,14296
2017-09-07T08:09:29.868Z,56224
2017-09-07T08:10:44.829Z,15992
2017-09-07T08:12:29.953Z,12212
2017-09-07T08:13:29.671Z,14396
2017-09-07T08:14:44.631Z,13448
2017-09-07T08:15:30.235Z,37792
2017-09-07T08:16:30.058Z,48032
2017-09-07T08:18:30.365Z,22272
2017-09-07T08:19:29.833Z,11816
2017-09-07T08:20:30.219Z,38048
2017-09-07T08:21:30.394Z,32576
2017-09-07T08:22:30.712Z,21152
2017-09-07T08:23:31.008Z,14820
2017-09-07T08:24:30.273Z,22336
2017-09-07T08:25:30.301Z,27776
2017-09-07T08:26:45.267Z,22208
2017-09-07T08:27:30.763Z,16960
2017-09-07T08:29:30.097Z,13384
2017-09-07T08:30:45.366Z,21024
2017-09-07T08:31:30.872Z,19424
2017-09-07T08:32:30.586Z,19040
2017-09-07T08:33:30.818Z,39712
2017-09-07T08:34:30.950Z,26848
2017-09-07T08:35:30.977Z,22208
2017-09-07T08:36:30.387Z,13644
2017-09-07T08:37:30.623Z,12336
2017-09-07T08:38:30.967Z,19200
2017-09-07T08:39:31.184Z,21696
2017-09-07T08:40:31.006Z,13524
2017-09-07T08:41:31.033Z,16960
2017-09-07T08:42:45.681Z,20160
2017-09-07T08:43:31.492Z,13696
2017-09-07T08:44:31.317Z,21376
2017-09-07T08:45:45.762Z,18656
2017-09-07T08:46:31.108Z,20288
2017-09-07T08:47:30.911Z,18048
2017-09-07T08:48:30.803Z,13424
2017-09-07T08:49:45.557Z,12164
2017-09-07T08:50:30.655Z,17568
2017-09-07T08:51:46.074Z,13872
2017-09-07T08:52:31.332Z,13544
2017-09-07T08:53:31.445Z,24800
2017-09-07T08:54:31.073Z,11852
2017-09-07T08:55:31.501Z,10284
2017-09-07T08:57:45.868Z,15336
2017-09-07T08:58:31.629Z,15004
2017-09-07T08:59:31.306Z,13220
2017-09-07T09:00:31.684Z,14708
2017-09-07T09:01:31.873Z,11092
2017-09-07T09:02:31.890Z,9344
2017-09-07T09:03:31.612Z,8032
2017-09-07T09:04:31.641Z,5596
2017-09-07T09:05:31.660Z,5056
2017-09-07T09:06:32.097Z,5808
2017-09-07T09:07:46.026Z,5908
2017-09-07T09:08:31.737Z,5552
2017-09-07T09:09:31.771Z,5256
2017-09-07T09:10:31.946Z,6920
2017-09-07T09:11:46.444Z,9512
2017-09-07T09:12:31.945Z,10368
2017-09-07T09:13:46.589Z,8652
2017-09-07T09:14:31.899Z,8868
2017-09-07T09:15:46.540Z,10364
2017-09-07T09:16:31.784Z,10596
2017-09-07T09:17:32.171Z,11300
2017-09-07T09:18:32.098Z,12796
2017-09-07T09:20:31.837Z,14280
2017-09-07T09:21:31.920Z,16416
2017-09-07T09:22:46.920Z,15116
2017-09-07T09:23:46.720Z,10852
2017-09-07T09:24:31.729Z,8932
2017-09-07T09:25:31.960Z,9952
2017-09-07T09:26:31.893Z,9980
2017-09-07T09:27:32.429Z,20640
2017-09-07T09:28:32.249Z,20288
2017-09-07T09:30:32.401Z,9152
2017-09-07T09:31:32.576Z,14668
2017-09-07T09:32:32.549Z,7984
2017-09-07T09:33:46.996Z,16456
2017-09-07T09:34:32.549Z,19936
2017-09-07T09:35:32.431Z,20800
2017-09-07T09:36:31.832Z,16328
2017-09-07T09:37:32.677Z,20672
2017-09-07T09:38:32.709Z,18880
2017-09-07T09:39:32.740Z,14812
2017-09-07T09:40:32.704Z,20000
2017-09-07T09:41:32.734Z,10056
2017-09-07T09:42:32.301Z,21632
2017-09-07T09:43:32.738Z,12520
2017-09-07T09:44:32.809Z,21600
2017-09-07T09:45:47.009Z,20096
2017-09-07T09:46:32.713Z,19392
2017-09-07T09:47:47.362Z,21632
2017-09-07T09:48:32.920Z,17376
2017-09-07T09:49:32.689Z,11984
2017-09-07T09:50:32.402Z,12640
2017-09-07T09:51:32.846Z,13528
2017-09-07T09:52:32.882Z,10924
2017-09-07T09:53:32.996Z,8712
2017-09-07T09:54:33.026Z,7492
2017-09-07T09:55:33.161Z,6212
2017-09-07T09:56:33.078Z,5516
2017-09-07T09:57:32.705Z,5412
2017-09-07T09:58:33.033Z,4344
2017-09-07T09:59:32.754Z,3036
2017-09-07T10:00:47.909Z,2248
2017-09-07T10:01:47.424Z,2460
2017-09-07T10:02:33.234Z,2492
2017-09-07T10:03:33.621Z,2584
2017-09-07T10:04:32.985Z,2476
2017-09-07T10:05:33.102Z,2488
2017-09-07T10:06:33.339Z,2584
2017-09-07T10:07:33.056Z,2940
2017-09-07T10:08:33.084Z,3748
2017-09-07T10:09:33.315Z,4528
2017-09-07T10:10:33.033Z,5160
2017-09-07T10:11:33.372Z,5964
2017-09-07T10:12:33.504Z,6732
2017-09-07T10:13:33.570Z,7460
2017-09-07T10:14:33.240Z,8224
2017-09-07T10:15:33.465Z,8964
2017-09-07T10:16:33.185Z,9636
2017-09-07T10:17:48.236Z,10316
2017-09-07T10:18:33.973Z,10604
2017-09-07T10:20:33.790Z,10908
2017-09-07T10:21:33.821Z,10928
2017-09-07T10:22:33.422Z,13076
2017-09-07T10:23:33.459Z,13376
2017-09-07T10:24:33.896Z,14904
2017-09-07T10:25:33.713Z,11256
2017-09-07T10:26:33.743Z,12148
2017-09-07T10:28:48.518Z,9196
2017-09-07T10:29:33.920Z,8376
2017-09-07T10:30:34.152Z,7284
2017-09-07T10:32:48.513Z,5596
2017-09-07T10:34:34.193Z,3580
2017-09-07T10:35:34.067Z,2376
2017-09-07T10:36:34.380Z,1704
2017-09-07T10:37:33.815Z,1488
2017-09-07T10:38:34.292Z,1636
2017-09-07T10:39:33.858Z,1972
2017-09-07T10:40:34.092Z,2240
2017-09-07T10:41:34.217Z,2480
2017-09-07T10:42:48.962Z,3024
2017-09-07T10:43:34.202Z,3496
2017-09-07T10:44:33.877Z,4388
2017-09-07T10:45:34.012Z,5688
2017-09-07T10:46:33.930Z,7036
2017-09-07T10:47:48.886Z,9760
2017-09-07T10:48:34.293Z,13736
2017-09-07T10:49:34.507Z,14212
2017-09-07T10:51:34.561Z,13988
2017-09-07T10:52:49.005Z,10228
2017-09-07T10:54:34.328Z,11788
2017-09-07T10:55:48.462Z,12888
2017-09-07T10:56:33.972Z,13280
2017-09-07T10:58:34.374Z,12892
2017-09-07T10:59:48.562Z,12664
2017-09-07T11:00:34.624Z,12736
2017-09-07T11:01:34.400Z,12732
2017-09-07T11:02:34.628Z,13084
2017-09-07T11:04:49.511Z,11948
2017-09-07T11:05:34.244Z,11328
2017-09-07T11:06:34.830Z,10580
2017-09-07T11:07:49.478Z,8776
2017-09-07T11:08:34.927Z,7596
2017-09-07T11:09:35.005Z,7076
2017-09-07T11:10:35.036Z,5688
2017-09-07T11:11:49.165Z,4932
2017-09-07T11:12:34.980Z,5004
2017-09-07T11:13:35.006Z,6312
2017-09-07T11:14:35.080Z,7620
2017-09-07T11:15:34.742Z,8236
2017-09-07T11:16:35.082Z,9072
2017-09-07T11:17:34.797Z,8960
2017-09-07T11:18:34.824Z,8136
2017-09-07T11:19:35.045Z,7656
2017-09-07T11:20:49.802Z,7536
2017-09-07T11:21:34.695Z,7340
2017-09-07T11:22:49.752Z,6672
2017-09-07T11:23:35.056Z,6340
2017-09-07T11:24:35.283Z,6112
2017-09-07T11:25:35.048Z,6068
2017-09-07T11:26:35.120Z,6028
2017-09-07T11:27:35.262Z,6184
2017-09-07T11:28:34.665Z,6204
2017-09-07T11:29:35.095Z,6268
2017-09-07T11:30:35.327Z,6516
2017-09-07T11:31:35.460Z,6800
2017-09-07T11:32:35.476Z,6576
2017-09-07T11:33:35.255Z,6220
2017-09-07T11:34:35.528Z,6044
2017-09-07T11:35:50.075Z,5400
2017-09-07T11:36:50.104Z,4788
2017-09-07T11:37:35.188Z,4672
2017-09-07T11:38:49.940Z,5352
2017-09-07T11:39:35.554Z,5848
2017-09-07T11:40:35.676Z,6812
2017-09-07T11:41:35.602Z,7720
2017-09-07T11:42:35.260Z,8120
2017-09-07T11:43:35.654Z,8168
2017-09-07T11:44:35.621Z,7812
2017-09-07T11:45:35.487Z,7276
2017-09-07T11:46:35.209Z,6844
2017-09-07T11:47:50.523Z,5948
2017-09-07T11:48:35.775Z,5456
2017-09-07T11:50:36.175Z,4620
2017-09-07T11:51:35.538Z,3080
2017-09-07T11:52:50.187Z,2040
2017-09-07T11:53:35.282Z,1744
2017-09-07T11:54:35.553Z,2048
2017-09-07T11:55:35.478Z,2468
2017-09-07T11:56:36.168Z,2880
2017-09-07T11:57:35.996Z,3848
2017-09-07T11:58:50.334Z,5064
2017-09-07T11:59:36.153Z,5600
2017-09-07T12:00:36.169Z,5964
2017-09-07T12:01:35.476Z,6240
2017-09-07T12:02:36.218Z,6496
2017-09-07T12:03:35.823Z,6664
2017-09-07T12:04:36.166Z,6772
2017-09-07T12:05:36.544Z,6860
2017-09-07T12:06:36.214Z,7044
2017-09-07T12:07:50.555Z,7080
2017-09-07T12:08:36.363Z,6780
2017-09-07T12:09:50.603Z,6548
2017-09-07T12:10:36.516Z,6552
2017-09-07T12:11:36.440Z,6332
2017-09-07T12:12:36.517Z,6064
2017-09-07T12:15:36.437Z,6852
2017-09-07T12:16:51.190Z,6984
2017-09-07T12:17:36.601Z,7120
2017-09-07T12:18:36.515Z,7240
2017-09-07T12:19:36.232Z,7136
2017-09-07T12:20:36.657Z,6884
2017-09-07T12:21:36.700Z,6700
2017-09-07T12:22:36.755Z,6776
2017-09-07T12:23:36.334Z,7128
2017-09-07T12:25:36.574Z,8008
2017-09-07T12:26:51.021Z,8200
2017-09-07T12:27:36.315Z,8456
2017-09-07T12:28:51.376Z,8768
2017-09-07T12:29:51.095Z,9024
2017-09-07T12:30:36.500Z,9148
2017-09-07T12:31:36.310Z,9288
2017-09-07T12:32:36.896Z,9276
2017-09-07T12:33:36.722Z,9212
2017-09-07T12:35:37.023Z,8944
2017-09-07T12:37:36.866Z,8664
2017-09-07T12:38:36.794Z,8772
2017-09-07T12:39:51.341Z,9168
2017-09-07T12:40:36.533Z,9428
2017-09-07T12:41:37.407Z,9008
2017-09-07T12:42:36.802Z,9068
2017-09-07T12:43:36.916Z,9352
2017-09-07T12:44:37.088Z,9724
2017-09-07T12:45:51.494Z,9840
2017-09-07T12:46:51.516Z,9480
2017-09-07T12:47:36.917Z,9652
2017-09-07T12:48:37.354Z,9496
2017-09-07T12:49:36.969Z,9316
2017-09-07T12:50:36.997Z,9024
2017-09-07T12:51:37.271Z,8964
2017-09-07T12:52:37.499Z,7896
2017-09-07T12:53:37.371Z,7032
2017-09-07T12:55:52.045Z,7180
2017-09-07T12:56:37.140Z,8120
2017-09-07T12:57:37.474Z,9496
2017-09-07T12:58:37.295Z,10340
2017-09-07T12:59:37.778Z,10908
2017-09-07T13:00:37.650Z,11624
2017-09-07T13:01:37.770Z,11980
2017-09-07T13:02:37.601Z,11848
2017-09-07T13:03:37.629Z,10892
2017-09-07T13:05:37.468Z,9616
2017-09-07T13:06:37.395Z,11020
2017-09-07T13:07:37.731Z,11408
2017-09-07T13:08:37.751Z,12044
2017-09-07T13:09:38.179Z,12840
2017-09-07T13:10:37.511Z,13976
2017-09-07T13:11:52.451Z,13060
2017-09-07T13:12:37.551Z,13428
2017-09-07T13:14:37.704Z,12472
2017-09-07T13:15:38.034Z,12728
2017-09-07T13:16:37.643Z,13140
2017-09-07T13:17:38.176Z,12184
2017-09-07T13:18:37.711Z,11728
2017-09-07T13:19:37.720Z,11200
2017-09-07T13:21:37.972Z,10684
2017-09-07T13:22:38.203Z,10508
2017-09-07T13:23:38.232Z,9000
2017-09-07T13:24:38.161Z,8204
2017-09-07T13:25:38.185Z,7044
2017-09-07T13:26:38.142Z,6044
2017-09-07T13:27:52.859Z,5048
2017-09-07T13:28:52.883Z,4236
2017-09-07T13:29:38.388Z,3448
2017-09-07T13:30:52.934Z,2852
2017-09-07T13:32:38.057Z,3224
2017-09-07T13:33:53.004Z,3372
2017-09-07T13:34:38.409Z,3540
2017-09-07T13:35:38.129Z,3612
2017-09-07T13:36:38.462Z,3440
2017-09-07T13:37:38.384Z,3792
2017-09-07T13:38:38.200Z,4328
2017-09-07T13:39:38.738Z,4456
2017-09-07T13:40:38.255Z,4660
2017-09-07T13:41:38.279Z,4852
2017-09-07T13:42:53.332Z,5712
2017-09-07T13:43:38.638Z,6188
2017-09-07T13:44:38.764Z,6676
2017-09-07T13:45:38.689Z,6912
2017-09-07T13:48:38.710Z,8600
2017-09-07T13:49:38.477Z,8000
2017-09-07T13:50:38.605Z,7484
2017-09-07T13:51:38.939Z,6144
2017-09-07T13:52:53.493Z,5956
2017-09-07T13:53:38.884Z,5760
2017-09-07T13:54:38.598Z,5484
2017-09-07T13:55:38.631Z,5356
2017-09-07T13:56:39.067Z,5416
2017-09-07T13:57:38.679Z,5456
2017-09-07T13:58:53.637Z,5092
2017-09-07T13:59:38.830Z,5028
2017-09-07T14:00:53.684Z,4864
2017-09-07T14:01:39.227Z,4720
2017-09-07T14:02:38.797Z,4524
2017-09-07T14:03:38.825Z,4272
2017-09-07T14:04:39.008Z,4012
2017-09-07T14:05:39.189Z,3720
2017-09-07T14:06:39.316Z,3496
2017-09-07T14:07:39.339Z,3412
2017-09-07T14:08:39.377Z,3312
2017-09-07T14:09:39.419Z,3248
2017-09-07T14:10:39.509Z,3240
2017-09-07T14:11:38.905Z,3344
2017-09-07T14:12:39.383Z,3504
2017-09-07T14:13:39.394Z,3772
2017-09-07T14:14:54.050Z,4172
2017-09-07T14:15:39.034Z,4408
2017-09-07T14:16:39.582Z,4156
2017-09-07T14:17:39.520Z,3996
2017-09-07T14:18:39.322Z,3908
2017-09-07T14:19:39.575Z,3888
2017-09-07T14:20:39.581Z,3956
2017-09-07T14:21:39.616Z,3996
2017-09-07T14:22:39.625Z,3944
2017-09-07T14:23:39.750Z,3876
2017-09-07T14:24:39.778Z,3872
2017-09-07T14:25:39.552Z,3792
2017-09-07T14:26:39.738Z,3772
2017-09-07T14:27:39.851Z,3760